Time;durP1;ratioP1;P1;durP2;ratioP2;P2;SDS_P1;SDS_P2;PMS_P1;PMS_P2;Temp;Humidity;BMP_temperature;BMP_pressure;BME280_temperature;BME280_humidity;BME280_pressure;Samples;Min_cycle;Max_cycle;Signal;HPM_P1;HPM_P2
2021/09/26 00:02:26;;;;;;;6.13;3.20;;;29.60;86.10;;;;;;5124481;28;20016;-48
2021/09/26 00:04:54;;;;;;;8.23;3.50;;;29.60;86.10;;;;;;5124750;28;20028;-50
2021/09/26 00:07:21;;;;;;;7.00;3.38;;;29.60;86.50;;;;;;5124213;28;20090;-53
2021/09/26 00:09:48;;;;;;;6.93;3.55;;;29.50;86.80;;;;;;5124208;28;20073;-52
2021/09/26 00:12:14;;;;;;;6.40;4.05;;;29.50;86.70;;;;;;5124477;28;20024;-50
2021/09/26 00:14:50;;;;;;;8.68;4.25;;;29.50;86.90;;;;;;5124312;28;20047;-52
2021/09/26 00:17:17;;;;;;;9.48;6.95;;;29.50;87.00;;;;;;5124344;28;20079;-51
2021/09/26 00:19:44;;;;;;;14.07;7.40;;;29.50;87.00;;;;;;5124405;28;20024;-55
2021/09/26 00:22:12;;;;;;;10.30;5.70;;;29.50;87.60;;;;;;5124155;28;20016;-53
2021/09/26 00:24:39;;;;;;;9.02;5.13;;;29.40;88.10;;;;;;5124424;28;20185;-52
2021/09/26 00:27:10;;;;;;;10.80;4.95;;;29.40;88.30;;;;;;5124000;28;20064;-48
2021/09/26 00:29:38;;;;;;;8.10;3.80;;;29.40;88.40;;;;;;5124255;28;20091;-51
2021/09/26 00:32:06;;;;;;;5.72;4.22;;;29.40;88.60;;;;;;5124126;28;20020;-52
2021/09/26 00:34:33;;;;;;;10.95;4.03;;;29.30;88.70;;;;;;5105826;28;20048;-49
2021/09/26 00:37:00;;;;;;;8.35;4.47;;;29.30;88.60;;;;;;5124144;28;20011;-51
2021/09/26 00:39:26;;;;;;;6.50;3.65;;;29.30;88.80;;;;;;5124200;28;20027;-51
2021/09/26 00:41:53;;;;;;;8.50;3.50;;;29.30;88.90;;;;;;5123944;28;20015;-53
2021/09/26 00:44:20;;;;;;;7.68;3.55;;;29.30;89.00;;;;;;5124227;28;20039;-49
2021/09/26 00:46:47;;;;;;;8.00;3.30;;;29.30;89.00;;;;;;5124097;28;20216;-49
2021/09/26 00:49:13;;;;;;;7.93;3.33;;;29.20;88.90;;;;;;5123826;28;20235;-51
2021/09/26 00:51:43;;;;;;;6.93;3.17;;;29.30;89.00;;;;;;5123974;28;20011;-54
2021/09/26 00:54:11;;;;;;;5.47;3.22;;;29.20;89.00;;;;;;5123930;28;20012;-51
2021/09/26 00:56:38;;;;;;;4.95;3.00;;;29.20;88.90;;;;;;5123736;28;20022;-54
2021/09/26 00:59:05;;;;;;;5.93;3.22;;;29.20;88.80;;;;;;5104000;28;20057;-51
2021/09/26 01:01:31;;;;;;;4.60;2.60;;;29.20;88.80;;;;;;5117621;28;20032;-50
2021/09/26 01:04:02;;;;;;;6.18;2.95;;;29.20;88.50;;;;;;5123630;28;20064;-50
2021/09/26 01:06:46;;;;;;;5.05;2.90;;;29.20;88.50;;;;;;5126092;28;20054;-52
2021/09/26 01:09:28;;;;;;;4.50;2.55;;;29.20;88.60;;;;;;5127427;28;20024;-54
2021/09/26 01:12:29;;;;;;;6.05;2.67;;;29.20;88.50;;;;;;5127521;28;20037;-48
2021/09/26 01:15:31;;;;;;;9.95;3.30;;;29.10;88.60;;;;;;5127597;28;20076;-56
2021/09/26 01:18:00;;;;;;;9.48;2.85;;;29.10;88.70;;;;;;5127630;28;20224;-47
2021/09/26 01:20:52;;;;;;;4.90;2.40;;;29.10;88.90;;;;;;5127848;28;20030;-53
2021/09/26 01:23:49;;;;;;;7.05;2.60;;;29.10;88.90;;;;;;5127364;28;20331;-53
2021/09/26 01:26:44;;;;;;;3.75;2.50;;;29.10;88.80;;;;;;5126231;28;20065;-52
2021/09/26 01:29:16;;;;;;;11.10;3.10;;;29.00;88.70;;;;;;5124165;28;20637;-49
2021/09/26 01:31:49;;;;;;;;;;;29.00;88.80;;;;;;5122941;28;20020;-51
2021/09/26 01:34:19;;;;;;;9.60;3.03;;;29.00;88.90;;;;;;5126667;28;19915;-49
2021/09/26 01:37:03;;;;;;;7.88;2.90;;;29.00;88.90;;;;;;5109256;28;20041;-54
2021/09/26 01:40:05;;;;;;;6.47;2.70;;;29.00;88.70;;;;;;5109155;28;20031;-54
2021/09/26 01:42:44;;;;;;;4.57;2.38;;;29.00;88.70;;;;;;5127575;28;20204;-54
2021/09/26 01:45:23;;;;;;;6.05;2.50;;;28.90;88.90;;;;;;5127645;28;20035;-52
2021/09/26 01:48:14;;;;;;;5.20;2.50;;;28.90;88.90;;;;;;5126934;28;20056;-54
2021/09/26 01:50:42;;;;;;;5.20;2.30;;;28.90;89.10;;;;;;5109765;28;20050;-49
2021/09/26 01:53:11;;;;;;;5.97;2.40;;;28.90;88.90;;;;;;5126756;28;20049;-52
2021/09/26 01:55:40;;;;;;;3.78;2.40;;;28.90;89.00;;;;;;5126564;28;20047;-53
2021/09/26 01:58:07;;;;;;;4.90;2.30;;;28.90;89.00;;;;;;5126921;28;20020;-55
2021/09/26 02:00:35;;;;;;;4.88;2.50;;;28.90;89.00;;;;;;5126918;28;20039;-51
2021/09/26 02:03:01;;;;;;;7.40;2.97;;;28.90;89.00;;;;;;5126652;28;20043;-54
2021/09/26 02:05:29;;;;;;;5.35;3.15;;;28.90;89.00;;;;;;5108055;28;20051;-51
2021/09/26 02:07:58;;;;;;;5.75;3.65;;;28.90;89.00;;;;;;5091381;28;20028;-55
2021/09/26 02:10:28;;;;;;;6.85;3.70;;;28.90;89.20;;;;;;5126911;28;20312;-53
2021/09/26 02:12:56;;;;;;;6.03;3.55;;;28.90;89.30;;;;;;5126288;28;20035;-55
2021/09/26 02:15:26;;;;;;;8.35;4.10;;;28.90;89.30;;;;;;5126382;28;20059;-52
2021/09/26 02:17:54;;;;;;;3.67;3.13;;;28.90;89.30;;;;;;5125498;28;20324;-56
2021/09/26 02:20:23;;;;;;;5.85;3.10;;;28.80;89.40;;;;;;5126588;28;20090;-57
2021/09/26 02:22:52;;;;;;;11.02;3.78;;;28.80;89.40;;;;;;5125957;28;20075;-50
2021/09/26 02:25:20;;;;;;;9.05;4.97;;;28.80;89.90;;;;;;5126393;28;20027;-53
2021/09/26 02:27:49;;;;;;;7.43;5.10;;;28.80;89.40;;;;;;5126049;28;20208;-52
2021/09/26 02:30:18;;;;;;;9.40;5.43;;;28.80;89.70;;;;;;5108098;28;20038;-54
2021/09/26 02:32:46;;;;;;;11.18;4.43;;;28.80;89.80;;;;;;5107890;28;20027;-47
2021/09/26 02:35:14;;;;;;;11.00;4.40;;;28.80;89.80;;;;;;5125695;28;20457;-49
2021/09/26 02:37:41;;;;;;;5.65;3.88;;;28.80;90.00;;;;;;5125676;28;20041;-48
2021/09/26 02:40:10;;;;;;;9.35;3.70;;;28.80;90.00;;;;;;5125935;28;20102;-56
2021/09/26 02:42:51;;;;;;;8.88;3.50;;;28.80;90.00;;;;;;5125511;28;20019;-50
2021/09/26 02:45:30;;;;;;;3.47;2.95;;;28.80;90.10;;;;;;5126055;28;20035;-48
2021/09/26 02:48:04;;;;;;;5.32;3.15;;;28.80;90.10;;;;;;5125567;28;20020;-49
2021/09/26 02:50:32;;;;;;;7.30;3.20;;;28.80;90.10;;;;;;5125894;28;20064;-49
2021/09/26 02:53:00;;;;;;;5.43;3.38;;;28.70;90.20;;;;;;5125472;28;20208;-47
2021/09/26 02:55:28;;;;;;;6.40;3.67;;;28.70;90.20;;;;;;5125601;28;20072;-49
2021/09/26 02:57:56;;;;;;;7.40;3.53;;;28.70;90.30;;;;;;5125651;28;20056;-49
2021/09/26 03:00:31;;;;;;;8.55;3.67;;;28.70;90.30;;;;;;5090537;28;20047;-54
2021/09/26 03:03:13;;;;;;;8.38;3.90;;;28.60;90.30;;;;;;5125154;28;20082;-50
2021/09/26 03:05:42;;;;;;;8.25;3.70;;;28.60;90.30;;;;;;5125477;28;20039;-50
2021/09/26 03:08:10;;;;;;;8.57;4.40;;;28.60;90.30;;;;;;5125120;28;20024;-49
2021/09/26 03:10:38;;;;;;;8.43;4.85;;;28.60;90.30;;;;;;5125527;28;20094;-50
2021/09/26 03:13:05;;;;;;;8.07;5.50;;;28.60;90.30;;;;;;5125260;28;20027;-54
2021/09/26 03:15:32;;;;;;;9.85;5.00;;;28.60;90.30;;;;;;5125186;28;20031;-52
2021/09/26 03:17:58;;;;;;;8.25;4.32;;;28.60;90.30;;;;;;5125209;28;20023;-50
2021/09/26 03:20:25;;;;;;;8.82;3.83;;;28.60;90.30;;;;;;5125565;28;20035;-53
2021/09/26 03:22:54;;;;;;;9.73;4.05;;;28.60;90.30;;;;;;5124770;28;20019;-47
2021/09/26 03:25:20;;;;;;;8.63;3.28;;;28.60;90.30;;;;;;5124884;28;20026;-56
2021/09/26 03:27:47;;;;;;;7.25;3.45;;;28.60;90.30;;;;;;5125157;28;20072;-50
2021/09/26 03:30:15;;;;;;;5.78;3.00;;;28.60;90.30;;;;;;5124027;28;20035;-50
2021/09/26 03:32:43;;;;;;;5.32;3.20;;;28.60;90.30;;;;;;5124835;28;20039;-48
2021/09/26 03:35:11;;;;;;;6.90;2.80;;;28.50;90.20;;;;;;5124550;28;20394;-52
2021/09/26 03:37:38;;;;;;;5.72;3.03;;;28.50;90.20;;;;;;5124695;28;20300;-50
2021/09/26 03:40:07;;;;;;;4.38;2.33;;;28.50;90.20;;;;;;5125064;28;20024;-57
2021/09/26 03:42:34;;;;;;;4.78;2.60;;;28.50;90.20;;;;;;5124729;28;20064;-50
2021/09/26 03:45:01;;;;;;;7.57;2.45;;;28.50;90.20;;;;;;5124707;28;20030;-53
2021/09/26 03:47:28;;;;;;;7.88;2.40;;;28.50;90.20;;;;;;5124513;28;20020;-53
2021/09/26 03:49:55;;;;;;;6.07;2.50;;;28.50;90.20;;;;;;5124748;28;20200;-53
2021/09/26 03:52:21;;;;;;;4.32;2.50;;;28.50;90.20;;;;;;5124434;28;20043;-54
2021/09/26 03:54:50;;;;;;;7.15;2.50;;;28.40;90.20;;;;;;5124622;28;20027;-55
2021/09/26 03:57:18;;;;;;;3.70;2.33;;;28.40;90.20;;;;;;5124507;28;20008;-53
2021/09/26 03:59:45;;;;;;;5.40;2.30;;;28.40;90.20;;;;;;5124375;28;20031;-47
2021/09/26 04:02:12;;;;;;;3.70;1.88;;;28.50;90.20;;;;;;5124481;28;20034;-45
2021/09/26 04:04:39;;;;;;;3.30;2.15;;;28.50;90.20;;;;;;5124490;28;20303;-45
2021/09/26 04:07:06;;;;;;;6.90;2.28;;;28.50;90.20;;;;;;5124091;28;20023;-50
2021/09/26 04:09:32;;;;;;;6.10;2.20;;;28.40;90.10;;;;;;5124446;28;20034;-44
2021/09/26 04:11:59;;;;;;;8.25;2.10;;;28.40;90.20;;;;;;5124370;28;20019;-45
2021/09/26 04:14:25;;;;;;;5.13;1.85;;;28.40;90.20;;;;;;5124196;28;20308;-49
2021/09/26 04:16:52;;;;;;;3.80;1.90;;;28.40;90.10;;;;;;5124264;28;20018;-46
2021/09/26 04:19:19;;;;;;;2.90;2.05;;;28.40;90.10;;;;;;5124348;28;20070;-49
2021/09/26 04:21:46;;;;;;;7.45;2.22;;;28.40;90.20;;;;;;5124165;28;20034;-55
2021/09/26 04:24:13;;;;;;;6.10;2.30;;;28.40;90.20;;;;;;5124254;28;20200;-53
2021/09/26 04:26:40;;;;;;;3.88;1.88;;;28.40;90.20;;;;;;5124239;28;20015;-51
2021/09/26 04:29:07;;;;;;;6.72;2.40;;;28.40;90.20;;;;;;5124072;28;20312;-52
2021/09/26 04:31:33;;;;;;;3.90;2.00;;;28.40;90.20;;;;;;5124211;28;20331;-52
2021/09/26 04:34:00;;;;;;;3.85;2.00;;;28.40;90.20;;;;;;5124329;28;20015;-50
2021/09/26 04:36:26;;;;;;;5.72;2.17;;;28.40;90.30;;;;;;5123879;28;20043;-56
2021/09/26 04:38:53;;;;;;;5.45;2.20;;;28.40;90.30;;;;;;5123972;28;20016;-48
2021/09/26 04:41:20;;;;;;;5.53;2.03;;;28.30;90.30;;;;;;5126614;28;20011;-50
2021/09/26 04:43:46;;;;;;;4.10;1.60;;;28.30;90.30;;;;;;5128007;28;20039;-48
2021/09/26 04:46:13;;;;;;;7.25;1.98;;;28.30;90.30;;;;;;5128604;28;20057;-48
2021/09/26 04:48:39;;;;;;;3.63;1.73;;;28.30;90.20;;;;;;5128129;28;20020;-54
2021/09/26 04:51:06;;;;;;;5.22;1.90;;;28.30;90.20;;;;;;5128404;28;20204;-55
2021/09/26 04:53:33;;;;;;;6.25;2.00;;;28.20;90.20;;;;;;5127940;28;20062;-52
2021/09/26 04:56:00;;;;;;;4.82;1.95;;;28.20;90.20;;;;;;5128153;28;20036;-51
2021/09/26 04:58:28;;;;;;;7.43;1.85;;;28.20;90.20;;;;;;5128028;28;20051;-46
2021/09/26 05:00:55;;;;;;;4.68;1.90;;;28.20;90.20;;;;;;5128079;28;20024;-48
2021/09/26 05:03:22;;;;;;;6.20;1.95;;;28.20;90.20;;;;;;5127902;28;20022;-50
2021/09/26 05:05:48;;;;;;;3.15;1.70;;;28.20;90.20;;;;;;5127979;28;20038;-49
2021/09/26 05:08:15;;;;;;;3.95;1.85;;;28.20;90.20;;;;;;5127864;28;20164;-51
2021/09/26 05:10:42;;;;;;;6.43;2.15;;;28.20;90.20;;;;;;5127915;28;20025;-51
2021/09/26 05:13:09;;;;;;;4.43;1.88;;;28.20;90.20;;;;;;5127512;28;20019;-46
2021/09/26 05:15:35;;;;;;;6.50;2.20;;;28.20;90.20;;;;;;5127592;28;20028;-46
2021/09/26 05:18:02;;;;;;;4.43;2.05;;;28.20;90.20;;;;;;5127360;28;20016;-53
2021/09/26 05:20:29;;;;;;;5.30;1.90;;;28.20;90.20;;;;;;5127745;28;20330;-50
2021/09/26 05:22:55;;;;;;;7.57;2.10;;;28.10;90.10;;;;;;5127203;28;20016;-47
2021/09/26 05:25:22;;;;;;;7.18;1.98;;;28.20;90.20;;;;;;5127585;28;20027;-46
2021/09/26 05:27:49;;;;;;;5.13;2.08;;;28.20;90.20;;;;;;5127153;28;20055;-49
2021/09/26 05:30:16;;;;;;;2.53;1.85;;;28.20;90.20;;;;;;5127350;28;20027;-47
2021/09/26 05:32:43;;;;;;;5.95;2.10;;;28.20;90.20;;;;;;5127016;28;20223;-55
2021/09/26 05:35:10;;;;;;;5.07;1.85;;;28.20;90.40;;;;;;5126807;28;20123;-48
2021/09/26 05:37:37;;;;;;;4.82;1.90;;;28.10;90.20;;;;;;5108669;28;20256;-53
2021/09/26 05:40:04;;;;;;;3.72;1.80;;;28.10;90.20;;;;;;5127198;28;20027;-51
2021/09/26 05:42:31;;;;;;;4.45;1.77;;;28.10;90.20;;;;;;5127035;28;20016;-50
2021/09/26 05:44:57;;;;;;;4.93;2.13;;;28.10;90.20;;;;;;5126914;28;20034;-47
2021/09/26 05:47:24;;;;;;;6.28;1.80;;;28.10;90.20;;;;;;5127081;28;20070;-47
2021/09/26 05:49:50;;;;;;;4.75;2.40;;;28.10;90.20;;;;;;5127003;28;20034;-48
2021/09/26 05:52:17;;;;;;;4.10;2.20;;;28.10;90.20;;;;;;5125570;28;20026;-50
2021/09/26 05:54:44;;;;;;;9.38;2.13;;;28.10;90.20;;;;;;5126513;28;20224;-53
2021/09/26 05:57:10;;;;;;;4.80;1.83;;;28.10;90.20;;;;;;5126728;28;20301;-50
2021/09/26 05:59:40;;;;;;;5.43;2.10;;;28.10;90.30;;;;;;5126638;28;20020;-48
2021/09/26 06:02:10;;;;;;;4.45;1.95;;;28.10;90.30;;;;;;5126637;28;20023;-49
2021/09/26 06:04:37;;;;;;;5.53;1.80;;;28.10;90.30;;;;;;5126578;28;20334;-51
2021/09/26 06:07:04;;;;;;;3.15;1.63;;;28.10;90.30;;;;;;5126206;28;20084;-50
2021/09/26 06:09:31;;;;;;;6.60;1.67;;;28.10;90.40;;;;;;5126664;28;20214;-46
2021/09/26 06:11:57;;;;;;;8.05;1.90;;;28.10;90.40;;;;;;5126416;28;20234;-54
2021/09/26 06:14:24;;;;;;;3.40;1.90;;;28.10;90.40;;;;;;5126292;28;20046;-53
2021/09/26 06:16:51;;;;;;;6.32;2.50;;;28.00;90.30;;;;;;5126409;28;20022;-50
2021/09/26 06:19:18;;;;;;;7.55;3.10;;;28.00;90.40;;;;;;5126238;28;20023;-47
2021/09/26 06:21:44;;;;;;;8.63;3.95;;;28.00;90.40;;;;;;5126184;28;20034;-51
2021/09/26 06:24:12;;;;;;;8.73;4.70;;;28.00;90.40;;;;;;5126503;28;20055;-52
2021/09/26 06:26:39;;;;;;;8.52;5.53;;;28.00;90.40;;;;;;5126095;28;20019;-56
2021/09/26 06:29:06;;;;;;;8.52;5.75;;;28.00;90.40;;;;;;5126126;28;20047;-52
2021/09/26 06:31:33;;;;;;;11.10;5.95;;;28.00;90.40;;;;;;5125995;28;20032;-57
2021/09/26 06:33:59;;;;;;;9.10;5.93;;;28.00;90.40;;;;;;5125836;28;20016;-54
2021/09/26 06:36:26;;;;;;;12.70;6.70;;;28.00;90.40;;;;;;5125572;28;20106;-54
2021/09/26 06:38:53;;;;;;;12.43;7.53;;;28.00;90.40;;;;;;5125667;28;20016;-46
2021/09/26 06:41:20;;;;;;;12.38;7.43;;;27.90;90.40;;;;;;5125886;28;20012;-51
2021/09/26 06:43:47;;;;;;;12.13;8.05;;;27.90;90.40;;;;;;5125607;28;20323;-49
2021/09/26 06:46:13;;;;;;;17.80;9.60;;;27.90;90.40;;;;;;5126186;28;20216;-47
2021/09/26 06:48:40;;;;;;;12.63;9.25;;;27.90;90.40;;;;;;5125609;28;20047;-49
2021/09/26 06:51:07;;;;;;;14.70;9.25;;;27.90;90.40;;;;;;5125939;28;20051;-49
2021/09/26 06:53:34;;;;;;;12.43;7.65;;;27.90;90.40;;;;;;5125508;28;20051;-47
2021/09/26 06:56:00;;;;;;;11.70;7.18;;;27.90;90.40;;;;;;5126119;28;20031;-46
2021/09/26 06:58:27;;;;;;;14.90;7.65;;;27.90;90.40;;;;;;5125321;28;20232;-46
2021/09/26 07:00:53;;;;;;;13.95;8.65;;;27.80;90.40;;;;;;5125807;28;20344;-49
2021/09/26 07:03:20;;;;;;;11.82;8.77;;;27.90;90.40;;;;;;5125241;28;20031;-48
2021/09/26 07:05:47;;;;;;;12.73;9.05;;;27.90;90.40;;;;;;5125650;28;20047;-53
2021/09/26 07:08:13;;;;;;;16.85;11.52;;;27.80;90.40;;;;;;5125289;28;20068;-49
2021/09/26 07:10:40;;;;;;;23.35;13.23;;;27.80;90.40;;;;;;5125611;28;20335;-46
2021/09/26 07:13:07;;;;;;;21.10;13.32;;;27.80;90.40;;;;;;5125224;28;20031;-56
2021/09/26 07:15:34;;;;;;;19.83;11.50;;;27.80;90.30;;;;;;5125234;28;20038;-55
2021/09/26 07:18:01;;;;;;;19.17;10.82;;;27.80;90.40;;;;;;5125060;28;20015;-48
2021/09/26 07:20:29;;;;;;;20.02;11.63;;;27.80;90.40;;;;;;5125349;28;20331;-46
2021/09/26 07:23:02;;;;;;;16.75;9.15;;;27.80;90.40;;;;;;5125082;28;20020;-52
2021/09/26 07:25:30;;;;;;;13.65;7.93;;;27.70;90.40;;;;;;5125303;28;20099;-47
2021/09/26 07:27:57;;;;;;;11.40;7.47;;;27.70;90.40;;;;;;5124659;28;20343;-49
2021/09/26 07:30:24;;;;;;;12.73;6.63;;;27.70;90.40;;;;;;5125241;28;20057;-54
2021/09/26 07:32:51;;;;;;;9.52;6.00;;;27.80;90.30;;;;;;5124864;28;20388;-47
2021/09/26 07:35:18;;;;;;;11.85;6.80;;;27.70;90.30;;;;;;5124502;28;20059;-47
2021/09/26 07:37:44;;;;;;;11.43;6.53;;;27.70;90.30;;;;;;5124810;28;20194;-53
2021/09/26 07:40:11;;;;;;;17.33;7.25;;;27.70;90.30;;;;;;5125039;28;20087;-50
2021/09/26 07:42:38;;;;;;;20.23;10.35;;;27.70;90.30;;;;;;5124559;28;20023;-47
2021/09/26 07:45:09;;;;;;;22.92;15.32;;;27.70;90.30;;;;;;5124847;28;20028;-49
2021/09/26 07:47:35;;;;;;;26.52;17.63;;;27.70;90.30;;;;;;5124573;28;20076;-51
2021/09/26 07:50:02;;;;;;;28.98;20.13;;;27.70;90.30;;;;;;5124832;28;20031;-47
2021/09/26 07:52:29;;;;;;;31.45;19.52;;;27.70;90.30;;;;;;5124648;28;20231;-47
2021/09/26 07:54:56;;;;;;;25.30;16.08;;;27.70;90.30;;;;;;5124878;28;20226;-52
2021/09/26 07:57:24;;;;;;;22.05;13.95;;;27.70;90.30;;;;;;5124405;28;20015;-51
2021/09/26 07:59:51;;;;;;;18.38;11.50;;;27.70;90.30;;;;;;5124530;28;20115;-51
2021/09/26 08:02:18;;;;;;;16.48;10.45;;;27.60;90.20;;;;;;5124632;28;20016;-53
2021/09/26 08:04:45;;;;;;;14.75;10.27;;;27.60;90.20;;;;;;5124552;28;20220;-48
2021/09/26 08:07:12;;;;;;;18.83;12.90;;;27.60;90.10;;;;;;5124343;28;20033;-48
2021/09/26 08:09:39;;;;;;;22.77;15.07;;;27.70;90.20;;;;;;5124528;28;20032;-46
2021/09/26 08:12:07;;;;;;;20.95;14.27;;;27.60;90.10;;;;;;5124247;28;20029;-51
2021/09/26 08:14:34;;;;;;;21.17;13.00;;;27.60;90.10;;;;;;5124351;28;20027;-52
2021/09/26 08:17:01;;;;;;;19.92;11.40;;;27.60;90.10;;;;;;5128108;28;20224;-51
2021/09/26 08:19:27;;;;;;;16.58;9.98;;;27.60;90.10;;;;;;5128548;28;20045;-48
2021/09/26 08:21:54;;;;;;;15.25;9.88;;;27.60;90.20;;;;;;5128536;28;20030;-47
2021/09/26 08:24:22;;;;;;;17.38;11.05;;;27.50;90.10;;;;;;5128576;28;20031;-50
2021/09/26 08:26:49;;;;;;;17.25;11.32;;;27.50;90.20;;;;;;5128329;28;20027;-50
2021/09/26 08:29:15;;;;;;;18.23;10.65;;;27.50;90.20;;;;;;5128297;28;20031;-56
2021/09/26 08:31:42;;;;;;;14.77;9.98;;;27.50;90.20;;;;;;5128312;28;20090;-49
2021/09/26 08:34:08;;;;;;;19.77;12.77;;;27.50;90.30;;;;;;5128172;28;20061;-46
2021/09/26 08:36:35;;;;;;;19.52;13.00;;;27.50;90.30;;;;;;5128067;28;20022;-45
2021/09/26 08:39:01;;;;;;;20.30;13.25;;;27.50;90.30;;;;;;5128249;28;20016;-45
2021/09/26 08:41:29;;;;;;;19.48;13.35;;;27.50;90.30;;;;;;5128111;28;20027;-46
2021/09/26 08:43:56;;;;;;;20.27;14.52;;;27.50;90.30;;;;;;5127948;28;20057;-47
2021/09/26 08:46:23;;;;;;;23.40;14.40;;;27.50;90.40;;;;;;5128173;28;20015;-46
2021/09/26 08:48:51;;;;;;;16.52;10.55;;;27.50;90.40;;;;;;5128003;28;20020;-51
2021/09/26 08:51:18;;;;;;;18.58;10.13;;;27.50;90.30;;;;;;5127883;28;20047;-47
2021/09/26 08:53:45;;;;;;;16.33;9.57;;;27.50;90.40;;;;;;5127896;28;20020;-50
2021/09/26 08:56:12;;;;;;;13.77;7.90;;;27.50;90.40;;;;;;5128502;28;20429;-45
2021/09/26 08:58:39;;;;;;;12.80;7.95;;;27.50;90.40;;;;;;5127648;28;20047;-51
2021/09/26 09:01:06;;;;;;;10.52;6.55;;;27.50;90.40;;;;;;5128238;28;20020;-51
2021/09/26 09:03:32;;;;;;;12.88;6.38;;;27.40;90.40;;;;;;5127679;28;20024;-48
2021/09/26 09:05:59;;;;;;;11.07;6.45;;;27.40;90.50;;;;;;5127862;28;20212;-45
2021/09/26 09:08:25;;;;;;;9.27;5.57;;;27.40;90.40;;;;;;5127673;28;20081;-48
2021/09/26 09:11:00;;;;;;;12.50;5.80;;;27.40;90.40;;;;;;5127731;28;20024;-47
2021/09/26 09:13:43;;;;;;;8.50;5.18;;;27.40;90.30;;;;;;5127530;28;20137;-46
2021/09/26 09:16:15;;;;;;;8.55;5.00;;;27.40;90.30;;;;;;5127881;28;20207;-52
2021/09/26 09:18:45;;;;;;;10.05;5.18;;;27.40;90.30;;;;;;5109186;28;20198;-48
2021/09/26 09:21:24;;;;;;;10.95;4.85;;;27.30;90.20;;;;;;5127809;28;20028;-46
2021/09/26 09:24:11;;;;;;;6.57;3.55;;;27.40;90.20;;;;;;5127161;28;20020;-48
2021/09/26 09:26:40;;;;;;;10.40;3.97;;;27.30;90.10;;;;;;5127583;28;20015;-46
2021/09/26 09:29:07;;;;;;;9.23;3.22;;;27.30;90.10;;;;;;5127120;28;20019;-49
2021/09/26 09:31:46;;;;;;;7.82;3.25;;;27.30;90.00;;;;;;5127153;28;20360;-49
2021/09/26 09:34:32;;;;;;;5.80;3.47;;;27.30;90.00;;;;;;5126936;28;20098;-51
2021/09/26 09:37:21;;;;;;;8.25;2.97;;;27.30;89.70;;;;;;5127054;28;20087;-48
2021/09/26 09:40:11;;;;;;;8.25;2.80;;;27.30;89.90;;;;;;5127293;28;20035;-50
2021/09/26 09:42:43;;;;;;;5.13;2.78;;;27.30;89.80;;;;;;5126949;28;20051;-49
2021/09/26 09:45:18;;;;;;;4.78;2.80;;;27.30;89.90;;;;;;5127326;28;20245;-46
2021/09/26 09:48:24;;;;;;;6.50;3.25;;;27.30;89.90;;;;;;5126814;28;20023;-47
2021/09/26 09:50:54;;;;;;;7.47;3.10;;;27.20;90.00;;;;;;5126689;28;20106;-47
2021/09/26 09:53:41;;;;;;;6.35;2.50;;;27.20;90.00;;;;;;5126590;28;20212;-47
2021/09/26 09:56:12;;;;;;;5.10;2.78;;;27.20;90.00;;;;;;5127153;28;20035;-50
2021/09/26 09:59:07;;;;;;;6.60;2.93;;;27.20;90.00;;;;;;5126558;28;20012;-51
2021/09/26 10:01:36;;;;;;;3.65;2.53;;;27.20;90.00;;;;;;5121866;28;20293;-49
2021/09/26 10:04:07;;;;;;;7.63;3.22;;;27.20;90.10;;;;;;5126561;28;20326;-47
2021/09/26 10:06:42;;;;;;;8.77;4.93;;;27.20;90.10;;;;;;5126521;28;20023;-47
2021/09/26 10:09:31;;;;;;;10.35;5.55;;;27.20;90.10;;;;;;5126381;28;20068;-52
2021/09/26 10:12:07;;;;;;;8.40;5.60;;;27.20;90.10;;;;;;5126495;28;20022;-48
2021/09/26 10:14:35;;;;;;;14.48;5.18;;;27.20;90.10;;;;;;5126315;28;20039;-47
2021/09/26 10:17:04;;;;;;;13.40;6.70;;;27.10;90.10;;;;;;5126375;28;20083;-50
2021/09/26 10:19:32;;;;;;;11.55;6.10;;;27.10;90.10;;;;;;5126149;28;20028;-49
2021/09/26 10:22:01;;;;;;;8.10;6.13;;;27.10;90.10;;;;;;5126387;28;20082;-50
2021/09/26 10:24:33;;;;;;;11.43;6.40;;;27.10;90.10;;;;;;5126404;28;20024;-49
2021/09/26 10:27:06;;;;;;;8.82;5.57;;;27.10;90.10;;;;;;5125931;28;20037;-46
2021/09/26 10:29:36;;;;;;;9.65;5.72;;;27.10;90.10;;;;;;5126251;28;20064;-47
2021/09/26 10:32:06;;;;;;;8.65;5.72;;;27.10;90.10;;;;;;5126043;28;20078;-52
2021/09/26 10:34:33;;;;;;;6.60;4.53;;;27.10;90.10;;;;;;5125677;28;20062;-55
2021/09/26 10:37:07;;;;;;;6.07;4.47;;;27.10;90.10;;;;;;5126066;28;20019;-50
2021/09/26 10:39:34;;;;;;;6.75;4.38;;;27.10;90.00;;;;;;5125364;28;20373;-48
2021/09/26 10:42:12;;;;;;;6.40;4.25;;;27.10;90.00;;;;;;5125854;28;20046;-47
2021/09/26 10:44:45;;;;;;;10.93;3.63;;;27.10;90.00;;;;;;5125984;28;20030;-47
2021/09/26 10:47:18;;;;;;;7.95;3.83;;;27.10;90.10;;;;;;5125730;28;20064;-54
2021/09/26 10:49:53;;;;;;;9.35;3.88;;;27.00;90.00;;;;;;5108277;28;20305;-46
2021/09/26 10:52:37;;;;;;;8.73;2.97;;;27.00;90.00;;;;;;5125441;28;20065;-47
2021/09/26 10:55:16;;;;;;;6.35;2.95;;;27.00;90.00;;;;;;5125693;28;20030;-47
2021/09/26 10:58:00;;;;;;;4.13;2.80;;;27.00;90.00;;;;;;5125480;28;20039;-50
2021/09/26 11:00:29;;;;;;;4.20;2.67;;;27.00;90.00;;;;;;5125916;28;20023;-51
2021/09/26 11:02:56;;;;;;;9.63;2.70;;;27.00;90.00;;;;;;5125393;28;20042;-51
2021/09/26 11:05:31;;;;;;;5.35;2.70;;;27.00;90.00;;;;;;5125616;28;20289;-46
2021/09/26 11:07:59;;;;;;;4.90;2.65;;;27.00;89.90;;;;;;5125123;28;20022;-49
2021/09/26 11:10:48;;;;;;;5.10;2.67;;;27.00;89.90;;;;;;5125769;28;20028;-51
2021/09/26 11:13:25;;;;;;;6.85;2.40;;;27.00;89.70;;;;;;5125020;28;20020;-55
2021/09/26 11:16:17;;;;;;;4.63;2.10;;;27.00;89.70;;;;;;5125583;28;20024;-50
2021/09/26 11:18:45;;;;;;;5.85;2.00;;;27.00;89.50;;;;;;5125287;28;20144;-52
2021/09/26 11:21:39;;;;;;;6.03;2.60;;;27.00;89.60;;;;;;5125706;28;20072;-48
2021/09/26 11:24:06;;;;;;;5.57;2.10;;;27.00;89.60;;;;;;5123145;28;20012;-54
2021/09/26 11:26:58;;;;;;;7.53;2.40;;;27.10;89.70;;;;;;5119103;28;20241;-55
2021/09/26 11:29:30;;;;;;;6.47;2.22;;;27.10;89.60;;;;;;5125146;28;20028;-48
2021/09/26 11:31:58;;;;;;;5.95;2.03;;;27.20;90.00;;;;;;5125142;28;20019;-53
2021/09/26 11:34:43;;;;;;;5.82;2.15;;;27.20;89.40;;;;;;5124574;28;20043;-53
2021/09/26 11:37:12;;;;;;;4.20;2.05;;;27.20;89.40;;;;;;5124935;28;20308;-56
2021/09/26 11:39:41;;;;;;;5.25;2.08;;;27.30;89.50;;;;;;5124792;28;20024;-52
2021/09/26 11:42:27;;;;;;;3.88;1.83;;;27.30;89.40;;;;;;5124795;28;20022;-47
2021/09/26 11:44:55;;;;;;;3.65;1.95;;;27.30;89.30;;;;;;5124766;28;20020;-49
2021/09/26 11:47:22;;;;;;;7.00;2.17;;;27.40;89.30;;;;;;5124710;28;20019;-54
2021/09/26 11:49:49;;;;;;;5.43;1.90;;;27.40;89.20;;;;;;5123956;28;20027;-50
2021/09/26 11:52:16;;;;;;;10.77;1.98;;;27.50;89.10;;;;;;5124491;28;20039;-50
2021/09/26 11:54:43;;;;;;;5.43;1.70;;;27.50;89.00;;;;;;5124540;28;20038;-47
2021/09/26 11:57:12;;;;;;;7.78;1.67;;;27.50;89.00;;;;;;5124427;28;20015;-53
2021/09/26 11:59:42;;;;;;;5.03;1.90;;;27.60;89.10;;;;;;5124442;28;20024;-50
2021/09/26 12:02:13;;;;;;;5.82;1.80;;;27.60;89.00;;;;;;5124379;28;20015;-55
2021/09/26 12:04:41;;;;;;;4.03;1.60;;;27.60;88.90;;;;;;5124570;28;20288;-52
2021/09/26 12:07:09;;;;;;;3.08;1.55;;;27.70;88.80;;;;;;5124648;28;20035;-49
2021/09/26 12:09:39;;;;;;;4.50;2.08;;;27.70;88.70;;;;;;5124490;28;20040;-49
2021/09/26 12:12:12;;;;;;;6.43;1.92;;;27.70;88.70;;;;;;5124185;28;20296;-49
2021/09/26 12:14:41;;;;;;;3.70;1.73;;;27.80;88.60;;;;;;5124305;28;20101;-50
2021/09/26 12:17:12;;;;;;;8.10;2.17;;;27.80;88.60;;;;;;5124068;28;20113;-48
2021/09/26 12:19:40;;;;;;;9.07;1.77;;;27.80;88.50;;;;;;5124233;28;20027;-52
2021/09/26 12:22:11;;;;;;;4.50;1.88;;;27.90;88.60;;;;;;5124298;28;20057;-50
2021/09/26 12:24:55;;;;;;;2.30;1.70;;;27.90;88.60;;;;;;5124342;28;20020;-52
2021/09/26 12:27:35;;;;;;;4.07;1.60;;;27.90;88.50;;;;;;5124249;28;20046;-49
2021/09/26 12:30:10;;;;;;;5.03;1.88;;;27.90;88.60;;;;;;5124438;28;20024;-56
2021/09/26 12:33:05;;;;;;;8.27;2.33;;;28.00;89.30;;;;;;5124238;28;20016;-55
2021/09/26 12:35:46;;;;;;;4.15;2.10;;;28.00;88.90;;;;;;5123709;28;20048;-53
2021/09/26 12:38:39;;;;;;;3.05;2.28;;;28.10;88.90;;;;;;5124151;28;20304;-56
2021/09/26 12:41:22;;;;;;;7.45;2.42;;;28.10;89.30;;;;;;5124640;28;20305;-58
2021/09/26 12:43:54;;;;;;;10.40;2.50;;;28.10;89.20;;;;;;5123940;28;20047;-52
2021/09/26 12:46:24;;;;;;;3.72;2.15;;;28.20;89.40;;;;;;5123985;28;20104;-49
2021/09/26 12:48:52;;;;;;;6.25;2.03;;;28.10;89.40;;;;;;5124075;28;20268;-48
2021/09/26 12:51:33;;;;;;;6.13;2.20;;;28.20;89.50;;;;;;5124188;28;20023;-48
2021/09/26 12:54:03;;;;;;;2.83;1.98;;;28.20;89.60;;;;;;5124114;28;20308;-49
2021/09/26 12:56:31;;;;;;;5.07;2.42;;;28.20;89.60;;;;;;5124065;28;20043;-53
2021/09/26 12:59:14;;;;;;;4.82;2.17;;;28.20;89.70;;;;;;5124176;28;20084;-51
2021/09/26 13:01:41;;;;;;;6.95;2.20;;;28.30;89.70;;;;;;5125247;28;20265;-56